sensor_id;sensor_type;location;lat;lon;timestamp;P1;P2;P0
77320;PMS7003;66382;52.252;8.780;2024-01-30T00:01:24;43.50;38.25;25.50
77320;PMS7003;66382;52.252;8.780;2024-01-30T00:03:50;41.75;38.25;27.75
77320;PMS7003;66382;52.252;8.780;2024-01-30T00:06:17;35.50;34.50;23.25
77320;PMS7003;66382;52.252;8.780;2024-01-30T00:08:43;37.50;36.00;26.50
77320;PMS7003;66382;52.252;8.780;2024-01-30T00:11:09;32.50;32.50;23.25
77320;PMS7003;66382;52.252;8.780;2024-01-30T00:13:34;32.75;32.25;22.00
77320;PMS7003;66382;52.252;8.780;2024-01-30T00:16:01;36.25;34.25;25.00
77320;PMS7003;66382;52.252;8.780;2024-01-30T00:18:26;36.75;34.75;24.00
77320;PMS7003;66382;52.252;8.780;2024-01-30T00:20:52;31.25;31.25;22.25
77320;PMS7003;66382;52.252;8.780;2024-01-30T00:23:17;39.75;37.25;26.00
77320;PMS7003;66382;52.252;8.780;2024-01-30T00:25:43;30.75;30.75;22.75
77320;PMS7003;66382;52.252;8.780;2024-01-30T00:28:08;35.75;33.50;23.25
77320;PMS7003;66382;52.252;8.780;2024-01-30T00:30:33;30.25;30.25;22.00
77320;PMS7003;66382;52.252;8.780;2024-01-30T00:33:00;31.75;31.75;23.75
77320;PMS7003;66382;52.252;8.780;2024-01-30T00:35:26;37.00;35.75;25.00
77320;PMS7003;66382;52.252;8.780;2024-01-30T00:37:51;37.75;36.00;25.00
77320;PMS7003;66382;52.252;8.780;2024-01-30T00:40:17;37.75;36.00;25.00
77320;PMS7003;66382;52.252;8.780;2024-01-30T00:42:42;32.75;32.75;23.00
77320;PMS7003;66382;52.252;8.780;2024-01-30T00:45:11;28.25;28.25;22.00
77320;PMS7003;66382;52.252;8.780;2024-01-30T00:47:37;30.00;30.00;24.75
77320;PMS7003;66382;52.252;8.780;2024-01-30T00:50:04;35.00;34.00;23.75
77320;PMS7003;66382;52.252;8.780;2024-01-30T00:52:30;31.00;31.00;23.50
77320;PMS7003;66382;52.252;8.780;2024-01-30T00:54:56;34.00;34.00;23.75
77320;PMS7003;66382;52.252;8.780;2024-01-30T00:57:21;33.00;32.50;22.25
77320;PMS7003;66382;52.252;8.780;2024-01-30T00:59:47;31.50;31.50;22.75
77320;PMS7003;66382;52.252;8.780;2024-01-30T01:02:12;36.50;35.25;24.75
77320;PMS7003;66382;52.252;8.780;2024-01-30T01:04:38;28.00;28.00;22.25
77320;PMS7003;66382;52.252;8.780;2024-01-30T01:07:05;33.25;33.25;22.25
77320;PMS7003;66382;52.252;8.780;2024-01-30T01:09:30;35.50;34.50;24.50
77320;PMS7003;66382;52.252;8.780;2024-01-30T01:11:55;32.00;32.00;22.50
77320;PMS7003;66382;52.252;8.780;2024-01-30T01:14:21;31.00;31.00;22.50
77320;PMS7003;66382;52.252;8.780;2024-01-30T01:16:46;33.00;30.00;22.25
77320;PMS7003;66382;52.252;8.780;2024-01-30T01:19:12;29.50;29.50;19.25
77320;PMS7003;66382;52.252;8.780;2024-01-30T01:21:37;32.50;32.50;22.25
77320;PMS7003;66382;52.252;8.780;2024-01-30T01:24:04;27.50;27.50;20.00
77320;PMS7003;66382;52.252;8.780;2024-01-30T01:26:30;32.50;32.50;22.50
77320;PMS7003;66382;52.252;8.780;2024-01-30T01:28:55;35.00;34.25;25.00
77320;PMS7003;66382;52.252;8.780;2024-01-30T01:31:21;29.00;29.00;22.25
77320;PMS7003;66382;52.252;8.780;2024-01-30T01:33:46;32.25;32.25;25.00
77320;PMS7003;66382;52.252;8.780;2024-01-30T01:36:13;32.00;32.00;24.25
77320;PMS7003;66382;52.252;8.780;2024-01-30T01:38:38;35.75;34.50;24.75
77320;PMS7003;66382;52.252;8.780;2024-01-30T01:41:05;34.50;34.00;23.00
77320;PMS7003;66382;52.252;8.780;2024-01-30T01:43:31;33.50;33.50;22.75
77320;PMS7003;66382;52.252;8.780;2024-01-30T01:45:56;36.25;35.25;24.75
77320;PMS7003;66382;52.252;8.780;2024-01-30T01:48:21;34.75;34.50;23.00
77320;PMS7003;66382;52.252;8.780;2024-01-30T01:50:47;33.00;33.00;21.75
77320;PMS7003;66382;52.252;8.780;2024-01-30T01:53:13;38.00;36.00;24.50
77320;PMS7003;66382;52.252;8.780;2024-01-30T01:55:40;37.75;34.50;25.25
77320;PMS7003;66382;52.252;8.780;2024-01-30T01:58:07;36.00;34.75;24.00
77320;PMS7003;66382;52.252;8.780;2024-01-30T02:00:33;33.75;33.75;25.00
77320;PMS7003;66382;52.252;8.780;2024-01-30T02:03:00;36.50;34.50;23.75
77320;PMS7003;66382;52.252;8.780;2024-01-30T02:05:25;39.50;37.25;25.00
77320;PMS7003;66382;52.252;8.780;2024-01-30T02:07:51;31.00;30.00;20.75
77320;PMS7003;66382;52.252;8.780;2024-01-30T02:10:17;38.25;36.25;25.50
77320;PMS7003;66382;52.252;8.780;2024-01-30T02:12:43;34.75;34.50;25.00
77320;PMS7003;66382;52.252;8.780;2024-01-30T02:15:12;41.75;37.75;24.50
77320;PMS7003;66382;52.252;8.780;2024-01-30T02:17:38;31.75;31.75;23.75
77320;PMS7003;66382;52.252;8.780;2024-01-30T02:20:04;37.75;36.50;24.75
77320;PMS7003;66382;52.252;8.780;2024-01-30T02:22:31;39.00;37.00;26.00
77320;PMS7003;66382;52.252;8.780;2024-01-30T02:24:59;35.50;34.75;24.75
77320;PMS7003;66382;52.252;8.780;2024-01-30T02:27:24;34.00;33.75;24.75
77320;PMS7003;66382;52.252;8.780;2024-01-30T02:29:49;38.75;36.75;25.75
77320;PMS7003;66382;52.252;8.780;2024-01-30T02:32:15;38.75;36.75;25.00
77320;PMS7003;66382;52.252;8.780;2024-01-30T02:34:40;41.25;37.75;25.00
77320;PMS7003;66382;52.252;8.780;2024-01-30T02:37:06;36.75;35.25;23.00
77320;PMS7003;66382;52.252;8.780;2024-01-30T02:39:33;38.00;35.75;25.75
77320;PMS7003;66382;52.252;8.780;2024-01-30T02:41:58;34.75;34.25;24.25
77320;PMS7003;66382;52.252;8.780;2024-01-30T02:44:24;39.50;36.50;25.00
77320;PMS7003;66382;52.252;8.780;2024-01-30T02:46:49;35.25;34.50;24.00
77320;PMS7003;66382;52.252;8.780;2024-01-30T02:49:15;35.75;34.75;25.00
77320;PMS7003;66382;52.252;8.780;2024-01-30T02:51:40;38.25;36.50;25.00
77320;PMS7003;66382;52.252;8.780;2024-01-30T02:54:06;37.50;36.50;24.25
77320;PMS7003;66382;52.252;8.780;2024-01-30T02:56:32;34.75;34.25;24.25
77320;PMS7003;66382;52.252;8.780;2024-01-30T02:58:58;39.50;37.25;25.00
77320;PMS7003;66382;52.252;8.780;2024-01-30T03:01:23;40.00;35.00;24.75
77320;PMS7003;66382;52.252;8.780;2024-01-30T03:03:49;35.50;34.50;25.00
77320;PMS7003;66382;52.252;8.780;2024-01-30T03:06:14;35.00;34.00;24.25
77320;PMS7003;66382;52.252;8.780;2024-01-30T03:08:40;40.75;37.75;23.75
77320;PMS7003;66382;52.252;8.780;2024-01-30T03:11:05;36.25;34.50;25.00
77320;PMS7003;66382;52.252;8.780;2024-01-30T03:13:32;39.25;37.50;25.00
77320;PMS7003;66382;52.252;8.780;2024-01-30T03:15:57;38.50;37.00;25.25
77320;PMS7003;66382;52.252;8.780;2024-01-30T03:18:23;35.75;35.00;24.25
77320;PMS7003;66382;52.252;8.780;2024-01-30T03:20:48;36.75;34.75;25.00
77320;PMS7003;66382;52.252;8.780;2024-01-30T03:23:14;37.25;35.25;23.75
77320;PMS7003;66382;52.252;8.780;2024-01-30T03:25:39;35.25;34.00;24.00
77320;PMS7003;66382;52.252;8.780;2024-01-30T03:28:05;34.50;34.00;25.00
77320;PMS7003;66382;52.252;8.780;2024-01-30T03:30:32;23.00;22.25;14.50
77320;PMS7003;66382;52.252;8.780;2024-01-30T03:32:57;35.50;34.50;23.50
77320;PMS7003;66382;52.252;8.780;2024-01-30T03:35:23;36.75;35.50;25.00
77320;PMS7003;66382;52.252;8.780;2024-01-30T03:37:48;34.75;34.25;25.00
77320;PMS7003;66382;52.252;8.780;2024-01-30T03:40:14;38.75;36.75;25.00
77320;PMS7003;66382;52.252;8.780;2024-01-30T03:42:39;34.75;33.75;24.75
77320;PMS7003;66382;52.252;8.780;2024-01-30T03:45:05;39.00;36.75;25.25
77320;PMS7003;66382;52.252;8.780;2024-01-30T03:47:32;34.00;33.75;25.00
77320;PMS7003;66382;52.252;8.780;2024-01-30T03:49:58;31.00;31.00;22.00
77320;PMS7003;66382;52.252;8.780;2024-01-30T03:52:23;35.00;34.25;23.75
77320;PMS7003;66382;52.252;8.780;2024-01-30T03:54:49;32.00;32.00;22.25
77320;PMS7003;66382;52.252;8.780;2024-01-30T03:57:14;34.25;34.00;24.75
77320;PMS7003;66382;52.252;8.780;2024-01-30T03:59:41;35.75;34.25;23.50
77320;PMS7003;66382;52.252;8.780;2024-01-30T04:02:07;37.00;34.00;22.50
77320;PMS7003;66382;52.252;8.780;2024-01-30T04:04:33;32.00;32.00;22.50
77320;PMS7003;66382;52.252;8.780;2024-01-30T04:06:59;36.25;35.25;25.00
77320;PMS7003;66382;52.252;8.780;2024-01-30T04:09:24;37.50;36.25;25.00
77320;PMS7003;66382;52.252;8.780;2024-01-30T04:11:50;32.50;32.50;24.75
77320;PMS7003;66382;52.252;8.780;2024-01-30T04:14:15;26.75;26.75;20.25
77320;PMS7003;66382;52.252;8.780;2024-01-30T04:16:41;27.50;27.50;19.00
77320;PMS7003;66382;52.252;8.780;2024-01-30T04:19:06;35.50;34.75;22.25
77320;PMS7003;66382;52.252;8.780;2024-01-30T04:21:33;31.50;31.25;23.00
77320;PMS7003;66382;52.252;8.780;2024-01-30T04:23:58;36.00;34.25;24.00
77320;PMS7003;66382;52.252;8.780;2024-01-30T04:26:24;33.75;33.75;22.00
77320;PMS7003;66382;52.252;8.780;2024-01-30T04:28:49;32.75;32.25;23.50
77320;PMS7003;66382;52.252;8.780;2024-01-30T04:31:15;34.75;34.00;23.00
77320;PMS7003;66382;52.252;8.780;2024-01-30T04:33:40;36.00;34.25;23.75
77320;PMS7003;66382;52.252;8.780;2024-01-30T04:36:08;31.50;31.50;22.00
77320;PMS7003;66382;52.252;8.780;2024-01-30T04:38:35;33.00;33.00;22.50
77320;PMS7003;66382;52.252;8.780;2024-01-30T04:41:00;33.00;33.00;23.50
77320;PMS7003;66382;52.252;8.780;2024-01-30T04:43:26;35.75;34.50;24.00
77320;PMS7003;66382;52.252;8.780;2024-01-30T04:45:51;32.75;32.75;23.50
77320;PMS7003;66382;52.252;8.780;2024-01-30T04:48:17;31.25;31.25;22.25
77320;PMS7003;66382;52.252;8.780;2024-01-30T04:50:42;33.50;32.75;22.50
77320;PMS7003;66382;52.252;8.780;2024-01-30T04:53:08;29.00;29.00;23.50
77320;PMS7003;66382;52.252;8.780;2024-01-30T04:55:35;32.50;32.50;24.00
77320;PMS7003;66382;52.252;8.780;2024-01-30T04:58:00;31.00;31.00;22.25
77320;PMS7003;66382;52.252;8.780;2024-01-30T05:00:26;29.25;28.00;20.00
77320;PMS7003;66382;52.252;8.780;2024-01-30T05:02:51;30.25;30.25;22.00
77320;PMS7003;66382;52.252;8.780;2024-01-30T05:05:17;30.00;30.00;21.50
77320;PMS7003;66382;52.252;8.780;2024-01-30T05:07:42;34.25;33.75;23.50
77320;PMS7003;66382;52.252;8.780;2024-01-30T05:10:08;31.25;31.25;22.00
77320;PMS7003;66382;52.252;8.780;2024-01-30T05:12:35;41.75;37.75;24.75
77320;PMS7003;66382;52.252;8.780;2024-01-30T05:15:01;39.25;36.75;26.00
77320;PMS7003;66382;52.252;8.780;2024-01-30T05:17:26;41.25;36.25;25.75
77320;PMS7003;66382;52.252;8.780;2024-01-30T05:19:52;33.00;32.75;22.75
77320;PMS7003;66382;52.252;8.780;2024-01-30T05:22:17;35.25;34.50;25.00
77320;PMS7003;66382;52.252;8.780;2024-01-30T05:24:43;34.25;33.75;23.50
77320;PMS7003;66382;52.252;8.780;2024-01-30T05:27:08;38.75;36.00;25.00
77320;PMS7003;66382;52.252;8.780;2024-01-30T05:29:35;31.50;31.50;23.25
77320;PMS7003;66382;52.252;8.780;2024-01-30T05:32:00;30.75;30.75;19.25
77320;PMS7003;66382;52.252;8.780;2024-01-30T05:34:26;38.00;36.00;23.75
77320;PMS7003;66382;52.252;8.780;2024-01-30T05:36:51;35.00;34.50;23.00
77320;PMS7003;66382;52.252;8.780;2024-01-30T05:39:17;29.00;27.25;19.00
77320;PMS7003;66382;52.252;8.780;2024-01-30T05:41:42;33.25;33.25;22.25
77320;PMS7003;66382;52.252;8.780;2024-01-30T05:44:07;24.25;24.25;17.75
77320;PMS7003;66382;52.252;8.780;2024-01-30T05:46:35;34.25;33.25;22.00
77320;PMS7003;66382;52.252;8.780;2024-01-30T05:49:00;31.50;31.50;22.25
77320;PMS7003;66382;52.252;8.780;2024-01-30T05:51:26;32.75;32.75;22.50
77320;PMS7003;66382;52.252;8.780;2024-01-30T05:53:51;32.75;32.75;21.25
77320;PMS7003;66382;52.252;8.780;2024-01-30T05:56:17;33.25;32.50;22.25
77320;PMS7003;66382;52.252;8.780;2024-01-30T05:58:42;31.25;31.25;20.00
77320;PMS7003;66382;52.252;8.780;2024-01-30T06:01:08;28.50;28.50;21.00
77320;PMS7003;66382;52.252;8.780;2024-01-30T06:03:35;28.50;28.50;20.75
77320;PMS7003;66382;52.252;8.780;2024-01-30T06:06:00;32.00;32.00;21.75
77320;PMS7003;66382;52.252;8.780;2024-01-30T06:08:26;26.75;26.75;20.75
77320;PMS7003;66382;52.252;8.780;2024-01-30T06:10:51;29.00;29.00;19.75
77320;PMS7003;66382;52.252;8.780;2024-01-30T06:13:17;34.25;33.50;22.50
77320;PMS7003;66382;52.252;8.780;2024-01-30T06:15:42;35.75;34.75;24.75
77320;PMS7003;66382;52.252;8.780;2024-01-30T06:18:07;33.50;33.50;21.75
77320;PMS7003;66382;52.252;8.780;2024-01-30T06:20:34;31.75;31.75;22.25
77320;PMS7003;66382;52.252;8.780;2024-01-30T06:23:00;33.75;32.75;22.25
77320;PMS7003;66382;52.252;8.780;2024-01-30T06:25:27;32.00;32.00;22.25
77320;PMS7003;66382;52.252;8.780;2024-01-30T06:27:54;33.00;33.00;22.25
77320;PMS7003;66382;52.252;8.780;2024-01-30T06:30:20;35.25;33.75;22.50
77320;PMS7003;66382;52.252;8.780;2024-01-30T06:32:45;30.25;30.25;22.25
77320;PMS7003;66382;52.252;8.780;2024-01-30T06:35:11;35.50;33.50;22.50
77320;PMS7003;66382;52.252;8.780;2024-01-30T06:37:38;33.75;33.75;23.00
77320;PMS7003;66382;52.252;8.780;2024-01-30T06:40:03;40.00;37.00;25.00
77320;PMS7003;66382;52.252;8.780;2024-01-30T06:42:30;21.75;21.75;11.50
77320;PMS7003;66382;52.252;8.780;2024-01-30T06:44:55;33.25;33.25;24.00
77320;PMS7003;66382;52.252;8.780;2024-01-30T06:47:20;36.50;34.75;24.50
77320;PMS7003;66382;52.252;8.780;2024-01-30T06:49:46;35.25;34.25;22.25
77320;PMS7003;66382;52.252;8.780;2024-01-30T06:52:11;33.75;33.50;23.50
77320;PMS7003;66382;52.252;8.780;2024-01-30T06:54:38;34.50;34.00;23.25
77320;PMS7003;66382;52.252;8.780;2024-01-30T06:57:04;38.75;36.25;24.75
77320;PMS7003;66382;52.252;8.780;2024-01-30T06:59:29;29.25;29.25;22.25
77320;PMS7003;66382;52.252;8.780;2024-01-30T07:01:56;34.50;33.75;23.00
77320;PMS7003;66382;52.252;8.780;2024-01-30T07:04:21;38.25;36.50;24.00
77320;PMS7003;66382;52.252;8.780;2024-01-30T07:06:47;27.50;27.50;20.00
77320;PMS7003;66382;52.252;8.780;2024-01-30T07:09:12;37.75;36.00;24.75
77320;PMS7003;66382;52.252;8.780;2024-01-30T07:11:39;33.00;33.00;24.75
77320;PMS7003;66382;52.252;8.780;2024-01-30T07:14:05;38.00;36.25;25.75
77320;PMS7003;66382;52.252;8.780;2024-01-30T07:16:30;34.75;34.00;23.50
77320;PMS7003;66382;52.252;8.780;2024-01-30T07:18:56;32.25;32.25;22.25
77320;PMS7003;66382;52.252;8.780;2024-01-30T07:21:22;21.50;21.50;14.25
77320;PMS7003;66382;52.252;8.780;2024-01-30T07:23:50;33.25;33.25;22.25
77320;PMS7003;66382;52.252;8.780;2024-01-30T07:26:15;34.00;33.25;21.75
77320;PMS7003;66382;52.252;8.780;2024-01-30T07:28:42;37.00;35.75;23.25
77320;PMS7003;66382;52.252;8.780;2024-01-30T07:31:07;35.00;34.00;23.25
77320;PMS7003;66382;52.252;8.780;2024-01-30T07:33:33;35.25;34.00;22.75
77320;PMS7003;66382;52.252;8.780;2024-01-30T07:35:58;38.75;35.00;24.75
77320;PMS7003;66382;52.252;8.780;2024-01-30T07:38:24;33.75;33.50;24.00
77320;PMS7003;66382;52.252;8.780;2024-01-30T07:40:49;34.00;34.00;25.00
77320;PMS7003;66382;52.252;8.780;2024-01-30T07:43:15;38.00;36.00;25.00
77320;PMS7003;66382;52.252;8.780;2024-01-30T07:45:41;40.25;37.00;26.00
77320;PMS7003;66382;52.252;8.780;2024-01-30T07:48:07;38.00;36.25;26.00
77320;PMS7003;66382;52.252;8.780;2024-01-30T07:50:33;36.50;35.50;25.00
77320;PMS7003;66382;52.252;8.780;2024-01-30T07:52:59;34.00;33.75;22.25
77320;PMS7003;66382;52.252;8.780;2024-01-30T07:55:25;28.50;28.25;20.75
77320;PMS7003;66382;52.252;8.780;2024-01-30T07:57:51;38.25;36.00;22.00
77320;PMS7003;66382;52.252;8.780;2024-01-30T08:00:17;38.50;35.75;24.00
77320;PMS7003;66382;52.252;8.780;2024-01-30T08:02:44;30.50;30.50;22.00
77320;PMS7003;66382;52.252;8.780;2024-01-30T08:05:10;33.50;32.25;22.50
77320;PMS7003;66382;52.252;8.780;2024-01-30T08:07:35;37.50;35.75;22.00
77320;PMS7003;66382;52.252;8.780;2024-01-30T08:10:01;25.25;25.25;20.00
77320;PMS7003;66382;52.252;8.780;2024-01-30T08:12:26;36.25;35.25;23.75
77320;PMS7003;66382;52.252;8.780;2024-01-30T08:14:52;29.50;29.50;22.00
77320;PMS7003;66382;52.252;8.780;2024-01-30T08:17:17;31.75;31.00;21.00
77320;PMS7003;66382;52.252;8.780;2024-01-30T08:19:44;31.25;31.25;22.00
77320;PMS7003;66382;52.252;8.780;2024-01-30T08:22:09;31.00;31.00;22.00
77320;PMS7003;66382;52.252;8.780;2024-01-30T08:24:35;30.25;29.25;21.50
77320;PMS7003;66382;52.252;8.780;2024-01-30T08:27:00;28.00;27.50;21.75
77320;PMS7003;66382;52.252;8.780;2024-01-30T08:29:26;41.75;38.25;25.75
77320;PMS7003;66382;52.252;8.780;2024-01-30T08:31:51;33.25;32.75;23.50
77320;PMS7003;66382;52.252;8.780;2024-01-30T08:34:17;32.50;32.25;22.00
77320;PMS7003;66382;52.252;8.780;2024-01-30T08:36:44;86.67;76.00;39.00
77320;PMS7003;66382;52.252;8.780;2024-01-30T08:39:09;58.75;49.25;33.00
77320;PMS7003;66382;52.252;8.780;2024-01-30T08:41:34;30.50;30.25;22.25
77320;PMS7003;66382;52.252;8.780;2024-01-30T08:44:00;33.50;33.25;24.25
77320;PMS7003;66382;52.252;8.780;2024-01-30T08:46:25;33.25;33.00;22.00
77320;PMS7003;66382;52.252;8.780;2024-01-30T08:48:51;22.25;22.25;18.00
77320;PMS7003;66382;52.252;8.780;2024-01-30T08:51:16;30.50;30.50;23.00
77320;PMS7003;66382;52.252;8.780;2024-01-30T08:53:43;36.50;34.75;25.00
77320;PMS7003;66382;52.252;8.780;2024-01-30T08:56:09;36.75;35.50;23.00
77320;PMS7003;66382;52.252;8.780;2024-01-30T08:58:34;35.75;33.75;23.75
77320;PMS7003;66382;52.252;8.780;2024-01-30T09:01:00;36.75;34.75;23.50
77320;PMS7003;66382;52.252;8.780;2024-01-30T09:03:25;35.00;33.75;24.00
77320;PMS7003;66382;52.252;8.780;2024-01-30T09:05:51;33.00;33.00;22.00
77320;PMS7003;66382;52.252;8.780;2024-01-30T09:08:16;35.25;33.25;22.75
77320;PMS7003;66382;52.252;8.780;2024-01-30T09:10:43;48.75;41.50;29.25
77320;PMS7003;66382;52.252;8.780;2024-01-30T09:13:08;31.25;31.25;22.00
77320;PMS7003;66382;52.252;8.780;2024-01-30T09:15:34;38.50;36.00;25.00
77320;PMS7003;66382;52.252;8.780;2024-01-30T09:17:59;39.75;36.00;24.25
77320;PMS7003;66382;52.252;8.780;2024-01-30T09:20:25;35.75;33.50;24.25
77320;PMS7003;66382;52.252;8.780;2024-01-30T09:22:50;36.50;34.75;24.25
77320;PMS7003;66382;52.252;8.780;2024-01-30T09:25:15;37.00;35.00;24.50
77320;PMS7003;66382;52.252;8.780;2024-01-30T09:27:42;31.25;31.25;20.50
77320;PMS7003;66382;52.252;8.780;2024-01-30T09:30:08;31.25;31.25;22.00
77320;PMS7003;66382;52.252;8.780;2024-01-30T09:32:34;30.25;30.25;20.75
77320;PMS7003;66382;52.252;8.780;2024-01-30T09:34:59;30.50;30.50;22.00
77320;PMS7003;66382;52.252;8.780;2024-01-30T09:37:24;28.00;28.00;21.75
77320;PMS7003;66382;52.252;8.780;2024-01-30T09:39:50;30.75;29.00;21.25
77320;PMS7003;66382;52.252;8.780;2024-01-30T09:42:18;28.75;28.75;22.25
77320;PMS7003;66382;52.252;8.780;2024-01-30T09:44:52;29.25;29.25;21.00
77320;PMS7003;66382;52.252;8.780;2024-01-30T09:47:18;23.25;23.00;17.25
77320;PMS7003;66382;52.252;8.780;2024-01-30T09:49:44;27.25;27.25;17.50
77320;PMS7003;66382;52.252;8.780;2024-01-30T09:52:10;30.75;30.75;21.50
77320;PMS7003;66382;52.252;8.780;2024-01-30T09:54:36;28.25;28.25;21.00
77320;PMS7003;66382;52.252;8.780;2024-01-30T09:57:03;29.25;29.25;20.00
77320;PMS7003;66382;52.252;8.780;2024-01-30T09:59:29;25.00;25.00;21.00
77320;PMS7003;66382;52.252;8.780;2024-01-30T10:01:56;30.00;29.00;22.50
77320;PMS7003;66382;52.252;8.780;2024-01-30T10:04:22;31.00;30.75;21.00
77320;PMS7003;66382;52.252;8.780;2024-01-30T10:06:47;29.00;29.00;22.00
77320;PMS7003;66382;52.252;8.780;2024-01-30T10:09:13;29.25;29.25;21.50
77320;PMS7003;66382;52.252;8.780;2024-01-30T10:11:39;25.00;25.00;17.25
77320;PMS7003;66382;52.252;8.780;2024-01-30T10:14:04;30.75;30.75;21.00
77320;PMS7003;66382;52.252;8.780;2024-01-30T10:16:30;30.00;30.00;24.25
77320;PMS7003;66382;52.252;8.780;2024-01-30T10:18:57;29.50;29.50;22.50
77320;PMS7003;66382;52.252;8.780;2024-01-30T10:21:22;29.25;29.25;21.00
77320;PMS7003;66382;52.252;8.780;2024-01-30T10:23:48;23.50;23.50;19.00
77320;PMS7003;66382;52.252;8.780;2024-01-30T10:26:15;33.75;32.00;23.00
77320;PMS7003;66382;52.252;8.780;2024-01-30T10:28:41;31.50;30.50;21.00
77320;PMS7003;66382;52.252;8.780;2024-01-30T10:31:06;33.00;32.00;20.75
77320;PMS7003;66382;52.252;8.780;2024-01-30T10:33:32;27.50;27.50;21.50
77320;PMS7003;66382;52.252;8.780;2024-01-30T10:35:59;32.00;31.00;23.00
77320;PMS7003;66382;52.252;8.780;2024-01-30T10:38:27;30.00;30.00;21.00
77320;PMS7003;66382;52.252;8.780;2024-01-30T10:40:54;29.25;29.25;21.00
77320;PMS7003;66382;52.252;8.780;2024-01-30T10:43:21;27.25;27.25;20.25
77320;PMS7003;66382;52.252;8.780;2024-01-30T10:45:48;29.25;28.75;21.75
77320;PMS7003;66382;52.252;8.780;2024-01-30T10:48:17;30.00;30.00;22.25
77320;PMS7003;66382;52.252;8.780;2024-01-30T10:50:46;26.50;26.50;19.75
77320;PMS7003;66382;52.252;8.780;2024-01-30T10:53:14;26.50;26.50;19.50
77320;PMS7003;66382;52.252;8.780;2024-01-30T10:55:42;26.50;25.25;19.50
77320;PMS7003;66382;52.252;8.780;2024-01-30T10:58:10;28.75;28.75;20.00
77320;PMS7003;66382;52.252;8.780;2024-01-30T11:00:36;27.00;26.75;17.50
77320;PMS7003;66382;52.252;8.780;2024-01-30T11:03:02;25.75;25.75;19.00
77320;PMS7003;66382;52.252;8.780;2024-01-30T11:05:28;23.50;23.50;19.75
77320;PMS7003;66382;52.252;8.780;2024-01-30T11:07:54;22.50;22.50;16.25
77320;PMS7003;66382;52.252;8.780;2024-01-30T11:10:21;22.00;22.00;17.00
77320;PMS7003;66382;52.252;8.780;2024-01-30T11:12:50;22.75;22.75;17.75
77320;PMS7003;66382;52.252;8.780;2024-01-30T11:15:16;25.00;25.00;18.75
77320;PMS7003;66382;52.252;8.780;2024-01-30T11:17:47;26.25;26.25;19.75
77320;PMS7003;66382;52.252;8.780;2024-01-30T11:20:16;22.50;22.00;17.00
77320;PMS7003;66382;52.252;8.780;2024-01-30T11:22:42;22.00;22.00;17.00
77320;PMS7003;66382;52.252;8.780;2024-01-30T11:25:11;21.25;21.25;16.50
77320;PMS7003;66382;52.252;8.780;2024-01-30T11:27:38;16.00;15.00;13.00
77320;PMS7003;66382;52.252;8.780;2024-01-30T11:30:04;20.25;20.25;15.00
77320;PMS7003;66382;52.252;8.780;2024-01-30T11:32:30;19.25;19.25;15.50
77320;PMS7003;66382;52.252;8.780;2024-01-30T11:34:56;18.25;16.75;12.00
77320;PMS7003;66382;52.252;8.780;2024-01-30T11:37:22;18.50;18.50;14.00
77320;PMS7003;66382;52.252;8.780;2024-01-30T11:39:50;15.25;15.25;12.25
77320;PMS7003;66382;52.252;8.780;2024-01-30T11:42:16;12.00;12.00;9.00
77320;PMS7003;66382;52.252;8.780;2024-01-30T11:44:47;18.50;18.50;14.50
77320;PMS7003;66382;52.252;8.780;2024-01-30T11:47:12;18.50;18.50;12.75
77320;PMS7003;66382;52.252;8.780;2024-01-30T11:49:39;19.25;19.25;14.50
77320;PMS7003;66382;52.252;8.780;2024-01-30T11:52:05;19.50;19.50;15.00
77320;PMS7003;66382;52.252;8.780;2024-01-30T11:54:30;17.75;17.75;13.25
77320;PMS7003;66382;52.252;8.780;2024-01-30T11:56:56;20.75;20.75;14.25
77320;PMS7003;66382;52.252;8.780;2024-01-30T11:59:22;20.75;20.75;15.00
77320;PMS7003;66382;52.252;8.780;2024-01-30T12:01:48;16.75;16.75;14.00
77320;PMS7003;66382;52.252;8.780;2024-01-30T12:04:16;17.00;17.00;13.75
77320;PMS7003;66382;52.252;8.780;2024-01-30T12:06:42;17.00;17.00;13.50
77320;PMS7003;66382;52.252;8.780;2024-01-30T12:09:08;11.25;11.25;10.25
77320;PMS7003;66382;52.252;8.780;2024-01-30T12:11:42;16.75;16.25;11.75
77320;PMS7003;66382;52.252;8.780;2024-01-30T12:14:08;13.50;13.50;8.25
77320;PMS7003;66382;52.252;8.780;2024-01-30T12:16:34;17.33;17.33;13.00
77320;PMS7003;66382;52.252;8.780;2024-01-30T12:19:01;23.00;21.75;16.25
77320;PMS7003;66382;52.252;8.780;2024-01-30T12:21:26;17.00;17.00;14.00
77320;PMS7003;66382;52.252;8.780;2024-01-30T12:23:52;16.67;16.67;13.00
77320;PMS7003;66382;52.252;8.780;2024-01-30T12:26:17;17.75;17.75;13.25
77320;PMS7003;66382;52.252;8.780;2024-01-30T12:28:49;31.75;30.25;19.50
77320;PMS7003;66382;52.252;8.780;2024-01-30T12:31:15;17.50;17.00;15.00
77320;PMS7003;66382;52.252;8.780;2024-01-30T12:33:40;21.25;20.00;16.25
77320;PMS7003;66382;52.252;8.780;2024-01-30T12:36:07;16.75;16.00;12.50
77320;PMS7003;66382;52.252;8.780;2024-01-30T12:38:33;22.75;22.75;18.25
77320;PMS7003;66382;52.252;8.780;2024-01-30T12:40:58;17.00;17.00;13.00
77320;PMS7003;66382;52.252;8.780;2024-01-30T12:43:24;33.00;31.25;22.25
77320;PMS7003;66382;52.252;8.780;2024-01-30T12:45:50;16.25;16.25;12.25
77320;PMS7003;66382;52.252;8.780;2024-01-30T12:48:17;25.00;24.75;18.00
77320;PMS7003;66382;52.252;8.780;2024-01-30T12:50:43;12.75;12.75;12.00
77320;PMS7003;66382;52.252;8.780;2024-01-30T12:53:09;18.00;18.00;14.25
77320;PMS7003;66382;52.252;8.780;2024-01-30T12:55:35;20.25;19.75;15.25
77320;PMS7003;66382;52.252;8.780;2024-01-30T12:58:00;18.00;17.25;14.50
77320;PMS7003;66382;52.252;8.780;2024-01-30T13:00:26;16.25;16.25;12.25
77320;PMS7003;66382;52.252;8.780;2024-01-30T13:02:51;18.75;18.00;14.00
77320;PMS7003;66382;52.252;8.780;2024-01-30T13:05:17;17.25;16.25;13.00
77320;PMS7003;66382;52.252;8.780;2024-01-30T13:07:42;16.50;16.50;13.75
77320;PMS7003;66382;52.252;8.780;2024-01-30T13:10:09;16.50;16.50;13.25
77320;PMS7003;66382;52.252;8.780;2024-01-30T13:12:35;15.50;15.50;12.00
77320;PMS7003;66382;52.252;8.780;2024-01-30T13:15:00;19.00;18.00;13.25
77320;PMS7003;66382;52.252;8.780;2024-01-30T13:17:26;21.00;20.00;15.50
77320;PMS7003;66382;52.252;8.780;2024-01-30T13:19:52;19.25;19.25;15.25
77320;PMS7003;66382;52.252;8.780;2024-01-30T13:22:17;18.25;18.25;13.50
77320;PMS7003;66382;52.252;8.780;2024-01-30T13:24:42;21.75;21.75;15.00
77320;PMS7003;66382;52.252;8.780;2024-01-30T13:27:09;18.00;18.00;15.00
77320;PMS7003;66382;52.252;8.780;2024-01-30T13:29:35;19.75;19.75;15.00
77320;PMS7003;66382;52.252;8.780;2024-01-30T13:32:00;18.50;18.50;15.00
77320;PMS7003;66382;52.252;8.780;2024-01-30T13:34:25;19.75;19.75;14.50
77320;PMS7003;66382;52.252;8.780;2024-01-30T13:36:51;23.00;23.00;18.25
77320;PMS7003;66382;52.252;8.780;2024-01-30T13:39:17;37.75;34.75;24.75